createdAt,value
2022-09-23T00:00:48.003Z,1.38
2022-09-23T00:03:15.325Z,1.10
2022-09-23T00:05:41.833Z,1.15
2022-09-23T00:08:10.634Z,1.40
2022-09-23T00:10:38.885Z,1.75
2022-09-23T00:13:06.051Z,1.05
2022-09-23T00:15:33.993Z,1.25
2022-09-23T00:18:00.457Z,1.20
2022-09-23T00:20:26.941Z,1.00
2022-09-23T00:22:53.489Z,1.35
2022-09-23T00:25:20.021Z,0.85
2022-09-23T00:27:46.557Z,1.10
2022-09-23T00:30:13.189Z,1.25
2022-09-23T00:32:40.299Z,1.27
2022-09-23T00:35:07.193Z,1.05
2022-09-23T00:37:33.834Z,1.33
2022-09-23T00:40:00.846Z,1.08
2022-09-23T00:42:27.515Z,1.35
2022-09-23T00:44:55.311Z,1.00
2022-09-23T00:47:21.858Z,1.42
2022-09-23T00:49:52.342Z,1.38
2022-09-23T00:55:49.331Z,1.33
2022-09-23T00:58:17.867Z,1.38
2022-09-23T01:00:46.592Z,2.08
2022-09-23T01:03:13.604Z,1.40
2022-09-23T01:05:40.243Z,1.98
2022-09-23T01:08:07.646Z,1.23
2022-09-23T01:10:40.895Z,1.50
2022-09-23T01:13:07.442Z,1.38
2022-09-23T01:15:54.151Z,1.27
2022-09-23T01:18:21.246Z,1.58
2022-09-23T01:20:59.815Z,0.93
2022-09-23T01:23:29.423Z,1.17
2022-09-23T01:26:00.109Z,1.30
2022-09-23T01:28:34.546Z,1.23
2022-09-23T01:31:11.635Z,1.42
2022-09-23T01:33:41.626Z,1.30
2022-09-23T01:36:14.265Z,1.38
2022-09-23T01:38:40.722Z,1.08
2022-09-23T01:41:16.586Z,1.13
2022-09-23T01:43:50.018Z,1.08
2022-09-23T01:46:27.990Z,1.10
2022-09-23T01:49:00.127Z,1.48
2022-09-23T01:51:32.823Z,1.10
2022-09-23T01:54:10.055Z,1.13
2022-09-23T01:56:42.229Z,1.23
2022-09-23T01:59:12.783Z,2.25
2022-09-23T02:01:42.119Z,1.15
2022-09-23T02:04:13.085Z,1.77
2022-09-23T02:06:41.985Z,1.10
2022-09-23T02:09:11.208Z,1.27
2022-09-23T02:11:38.605Z,1.35
2022-09-23T02:14:09.859Z,1.85
2022-09-23T02:16:39.519Z,1.48
2022-09-23T02:19:18.766Z,1.38
2022-09-23T02:21:49.644Z,1.38
2022-09-23T02:24:27.403Z,1.88
2022-09-23T02:26:56.035Z,0.95
2022-09-23T02:29:27.600Z,1.27
2022-09-23T02:32:00.323Z,1.08
2022-09-23T02:34:40.038Z,1.45
2022-09-23T02:37:25.464Z,0.90
2022-09-23T02:40:10.513Z,1.23
2022-09-23T02:42:43.087Z,0.80
2022-09-23T02:45:09.518Z,0.98
2022-09-23T02:47:38.178Z,1.10
2022-09-23T02:50:04.841Z,1.25
2022-09-23T02:52:32.424Z,1.30
2022-09-23T02:55:00.997Z,0.77
2022-09-23T02:57:27.458Z,1.08
2022-09-23T02:59:53.956Z,0.82
2022-09-23T03:02:39.993Z,1.08
2022-09-23T03:05:14.093Z,0.82
2022-09-23T03:07:40.874Z,0.95
2022-09-23T03:10:16.635Z,1.30
2022-09-23T03:12:53.078Z,1.00
2022-09-23T03:15:22.760Z,0.70
2022-09-23T03:18:08.402Z,1.00
2022-09-23T03:20:35.241Z,1.63
2022-09-23T03:23:03.928Z,0.90
2022-09-23T03:25:31.833Z,0.93
2022-09-23T03:27:59.420Z,0.70
2022-09-23T03:30:26.524Z,1.40
2022-09-23T03:32:54.659Z,1.00
2022-09-23T03:35:22.068Z,0.63
2022-09-23T03:37:53.560Z,1.58
2022-09-23T03:40:22.934Z,1.38
2022-09-23T03:42:49.466Z,1.65
2022-09-23T03:45:21.885Z,1.38
2022-09-23T03:47:48.522Z,0.95
2022-09-23T03:50:17.416Z,0.93
2022-09-23T03:52:44.596Z,0.90
2022-09-23T03:55:11.508Z,0.82
2022-09-23T03:57:38.264Z,0.90
2022-09-23T04:00:06.787Z,1.20
2022-09-23T04:02:33.478Z,1.42
2022-09-23T04:05:00.039Z,0.95
2022-09-23T04:07:26.559Z,0.93
2022-09-23T04:09:53.091Z,1.02
2022-09-23T04:12:19.566Z,1.17
2022-09-23T04:14:46.039Z,0.90
2022-09-23T04:17:13.235Z,1.38
2022-09-23T04:19:40.017Z,1.15
2022-09-23T04:22:06.877Z,0.68
2022-09-23T04:24:33.741Z,1.02
2022-09-23T04:27:00.226Z,0.68
2022-09-23T04:29:27.052Z,1.35
2022-09-23T04:31:53.770Z,0.95
2022-09-23T04:34:20.472Z,1.02
2022-09-23T04:36:47.558Z,0.93
2022-09-23T04:39:15.029Z,1.10
2022-09-23T04:41:42.032Z,1.20
2022-09-23T04:44:08.541Z,1.98
2022-09-23T04:46:35.149Z,1.15
2022-09-23T04:49:01.948Z,1.77
2022-09-23T04:51:28.678Z,1.00
2022-09-23T04:53:55.371Z,0.95
2022-09-23T04:56:23.134Z,0.88
2022-09-23T04:58:50.126Z,0.70
2022-09-23T05:01:24.325Z,1.05
2022-09-23T05:03:51.931Z,1.08
2022-09-23T05:06:18.635Z,2.08
2022-09-23T05:08:49.375Z,0.60
2022-09-23T05:11:16.035Z,1.13
2022-09-23T05:13:42.478Z,0.82
2022-09-23T05:16:11.043Z,0.70
2022-09-23T05:18:41.131Z,0.80
2022-09-23T05:21:07.719Z,1.35
2022-09-23T05:23:34.238Z,0.90
2022-09-23T05:26:01.999Z,0.90
2022-09-23T05:28:32.786Z,0.90
2022-09-23T05:31:03.087Z,1.17
2022-09-23T05:33:30.231Z,1.00
2022-09-23T05:35:56.714Z,1.20
2022-09-23T05:38:23.217Z,0.80
2022-09-23T05:41:03.469Z,1.15
2022-09-23T05:43:30.037Z,1.13
2022-09-23T05:46:08.336Z,1.05
2022-09-23T05:48:36.057Z,0.82
2022-09-23T05:51:03.033Z,1.42
2022-09-23T05:53:29.841Z,0.90
2022-09-23T05:55:57.059Z,0.90
2022-09-23T05:58:24.350Z,1.05
2022-09-23T06:00:51.334Z,1.00
2022-09-23T06:03:21.175Z,0.70
2022-09-23T06:05:48.526Z,0.82
2022-09-23T06:08:15.092Z,0.90
2022-09-23T06:10:42.851Z,1.30
2022-09-23T06:13:09.704Z,1.00
2022-09-23T06:15:36.392Z,1.85
2022-09-23T06:18:03.786Z,1.10
2022-09-23T06:20:30.308Z,1.15
2022-09-23T06:23:04.645Z,1.05
2022-09-23T06:25:33.341Z,1.00
2022-09-23T06:27:59.775Z,0.93
2022-09-23T06:30:26.805Z,1.15
2022-09-23T06:32:54.464Z,1.10
2022-09-23T06:35:26.903Z,0.95
2022-09-23T06:37:54.138Z,0.90
2022-09-23T06:40:21.224Z,1.13
2022-09-23T06:42:52.173Z,0.82
2022-09-23T06:45:18.858Z,1.58
2022-09-23T06:47:45.330Z,0.95
2022-09-23T06:50:13.171Z,1.40
2022-09-23T06:52:39.736Z,1.33
2022-09-23T06:55:06.599Z,1.38
2022-09-23T06:57:33.252Z,1.75
2022-09-23T06:59:59.751Z,1.60
2022-09-23T07:02:26.698Z,1.20
2022-09-23T07:04:57.314Z,1.20
2022-09-23T07:07:23.877Z,1.27
2022-09-23T07:09:50.377Z,1.17
2022-09-23T07:12:17.023Z,1.40
2022-09-23T07:14:43.479Z,1.10
2022-09-23T07:17:10.019Z,1.77
2022-09-23T07:19:36.736Z,1.10
2022-09-23T07:22:03.206Z,1.02
2022-09-23T07:24:29.765Z,1.02
2022-09-23T07:26:56.235Z,1.50
2022-09-23T07:29:22.762Z,1.13
2022-09-23T07:31:49.274Z,1.10
2022-09-23T07:34:15.809Z,0.80
2022-09-23T07:36:42.445Z,0.90
2022-09-23T07:39:11.251Z,1.60
2022-09-23T07:41:38.163Z,1.77
2022-09-23T07:44:06.163Z,1.00
2022-09-23T07:46:34.046Z,1.27
2022-09-23T07:49:02.044Z,0.98
2022-09-23T07:51:35.510Z,0.68
2022-09-23T07:54:03.372Z,1.08
2022-09-23T07:56:30.341Z,1.33
2022-09-23T07:59:06.258Z,0.80
2022-09-23T08:01:34.477Z,1.02
2022-09-23T08:04:05.803Z,1.00
2022-09-23T08:06:32.326Z,1.20
2022-09-23T08:08:59.418Z,1.00
2022-09-23T08:11:26.628Z,0.73
2022-09-23T08:13:53.879Z,0.88
2022-09-23T08:16:20.866Z,1.08
2022-09-23T08:18:47.615Z,0.52
2022-09-23T08:21:18.596Z,0.80
2022-09-23T08:23:45.387Z,0.98
2022-09-23T08:26:19.311Z,1.05
2022-09-23T08:28:48.251Z,0.93
2022-09-23T08:31:14.776Z,0.93
2022-09-23T08:33:41.598Z,0.70
2022-09-23T08:36:08.219Z,0.88
2022-09-23T08:38:34.787Z,0.60
2022-09-23T08:41:05.993Z,0.80
2022-09-23T08:43:33.757Z,0.70
2022-09-23T08:46:02.513Z,0.70
2022-09-23T08:48:30.714Z,1.67
2022-09-23T08:51:07.477Z,0.85
2022-09-23T08:53:37.706Z,0.70
2022-09-23T08:56:07.197Z,0.65
2022-09-23T08:58:48.249Z,0.85
2022-09-23T09:01:17.591Z,1.17
2022-09-23T09:03:50.399Z,0.82
2022-09-23T09:06:20.259Z,0.90
2022-09-23T09:08:52.334Z,0.93
2022-09-23T09:11:19.416Z,0.80
2022-09-23T09:13:53.595Z,0.70
2022-09-23T09:17:01.262Z,0.85
2022-09-23T09:19:37.081Z,0.55
2022-09-23T09:22:05.736Z,0.70
2022-09-23T09:24:33.790Z,0.70
2022-09-23T09:27:11.355Z,0.90
2022-09-23T09:29:41.167Z,0.90
2022-09-23T09:32:14.357Z,1.10
2022-09-23T09:34:44.861Z,1.20
2022-09-23T09:37:31.411Z,1.00
2022-09-23T09:39:58.236Z,0.88
2022-09-23T09:42:27.375Z,1.67
2022-09-23T09:45:02.512Z,1.10
2022-09-23T09:47:47.854Z,0.98
2022-09-23T09:50:20.688Z,1.10
2022-09-23T09:52:48.249Z,0.80
2022-09-23T09:55:14.715Z,1.00
2022-09-23T09:57:58.265Z,1.05
2022-09-23T10:00:26.471Z,1.35
2022-09-23T10:02:59.420Z,0.98
2022-09-23T10:05:47.924Z,1.08
2022-09-23T10:08:32.371Z,0.90
2022-09-23T10:10:58.806Z,0.70
2022-09-23T10:13:26.462Z,0.63
2022-09-23T10:15:55.080Z,1.05
2022-09-23T10:18:51.139Z,0.55
2022-09-23T10:21:23.093Z,0.60
2022-09-23T10:23:55.190Z,0.70
2022-09-23T10:26:27.908Z,0.82
2022-09-23T10:28:59.594Z,0.93
2022-09-23T10:31:27.387Z,0.50
2022-09-23T10:33:55.597Z,0.55
2022-09-23T10:36:22.351Z,0.50
2022-09-23T10:39:18.853Z,0.82
2022-09-23T10:42:28.407Z,0.70
2022-09-23T10:45:32.408Z,0.50
2022-09-23T10:48:04.216Z,0.50
2022-09-23T10:50:43.119Z,0.68
2022-09-23T10:53:18.494Z,1.05
2022-09-23T10:55:48.151Z,0.40
2022-09-23T10:58:20.801Z,0.45
2022-09-23T11:00:52.283Z,0.70
2022-09-23T11:03:38.707Z,0.40
2022-09-23T11:06:14.575Z,0.40
2022-09-23T11:08:41.063Z,0.50
2022-09-23T11:11:16.717Z,0.60
2022-09-23T11:14:04.163Z,0.50
2022-09-23T11:16:39.178Z,0.40
2022-09-23T11:19:16.273Z,0.50
2022-09-23T11:21:44.255Z,0.55
2022-09-23T11:24:28.077Z,0.55
2022-09-23T11:27:05.069Z,0.75
2022-09-23T11:29:35.445Z,0.50
2022-09-23T11:32:14.397Z,0.30
2022-09-23T11:34:57.976Z,0.70
2022-09-23T11:37:26.297Z,0.43
2022-09-23T11:40:01.353Z,0.60
2022-09-23T11:42:30.914Z,0.43
2022-09-23T11:45:08.588Z,0.35
2022-09-23T11:47:43.628Z,0.40
2022-09-23T11:50:16.255Z,0.70
2022-09-23T11:52:46.223Z,0.40
2022-09-23T11:55:22.582Z,0.50
2022-09-23T11:57:54.500Z,0.22
2022-09-23T12:00:22.040Z,0.30
2022-09-23T12:03:03.828Z,0.30
2022-09-23T12:05:58.641Z,0.55
2022-09-23T12:08:36.816Z,0.55
2022-09-23T12:11:03.276Z,0.50
2022-09-23T12:13:29.700Z,0.30
2022-09-23T12:16:10.028Z,0.52
2022-09-23T12:18:37.211Z,0.40
2022-09-23T12:21:22.157Z,0.30
2022-09-23T12:24:26.708Z,0.40
2022-09-23T12:26:57.303Z,0.20
2022-09-23T12:29:25.791Z,0.20
2022-09-23T12:31:52.680Z,0.60
2022-09-23T12:34:22.262Z,0.20
2022-09-23T12:36:48.940Z,0.45
2022-09-23T12:39:15.375Z,0.20
2022-09-23T12:41:42.997Z,0.13
2022-09-23T12:44:13.531Z,0.40
2022-09-23T12:46:41.094Z,0.30
2022-09-23T12:49:24.098Z,0.68
2022-09-23T12:52:09.104Z,0.77
2022-09-23T12:54:35.674Z,0.32
2022-09-23T12:57:02.767Z,0.25
2022-09-23T12:59:33.125Z,0.20
2022-09-23T13:02:18.818Z,0.38
2022-09-23T13:05:11.652Z,0.30
2022-09-23T13:07:41.448Z,0.47
2022-09-23T13:10:11.801Z,0.35
2022-09-23T13:12:40.087Z,0.57
2022-09-23T13:15:14.677Z,0.70
2022-09-23T13:17:41.171Z,1.10
2022-09-23T13:20:19.910Z,0.80
2022-09-23T13:22:46.531Z,1.00
2022-09-23T13:25:19.177Z,0.80
2022-09-23T13:27:47.735Z,1.40
2022-09-23T13:30:14.157Z,1.30
2022-09-23T13:32:48.592Z,0.80
2022-09-23T13:35:32.506Z,0.90
2022-09-23T13:37:59.052Z,0.85
2022-09-23T13:40:27.542Z,0.68
2022-09-23T13:43:17.240Z,0.30
2022-09-23T13:45:44.169Z,0.40
2022-09-23T13:48:16.803Z,0.65
2022-09-23T13:50:45.098Z,0.60
2022-09-23T13:53:13.268Z,0.63
2022-09-23T13:55:40.036Z,0.50
2022-09-23T13:58:18.923Z,0.55
2022-09-23T14:00:45.888Z,0.60
2022-09-23T14:03:36.189Z,0.55
2022-09-23T14:06:11.338Z,0.40
2022-09-23T14:08:45.377Z,0.50
2022-09-23T14:13:44.119Z,0.55
2022-09-23T14:16:11.849Z,0.52
2022-09-23T14:18:40.015Z,0.40
2022-09-23T14:21:23.700Z,0.40
2022-09-23T14:23:50.131Z,1.10
2022-09-23T14:26:16.656Z,0.65
2022-09-23T14:28:43.139Z,0.63
2022-09-23T14:31:09.777Z,0.40
2022-09-23T14:33:39.500Z,0.30
2022-09-23T14:36:30.769Z,0.70
2022-09-23T14:39:17.488Z,0.30
2022-09-23T14:41:45.607Z,0.32
2022-09-23T14:44:20.687Z,0.60
2022-09-23T14:46:56.809Z,0.40
2022-09-23T14:49:23.787Z,0.40
2022-09-23T14:51:53.197Z,0.50
2022-09-23T14:54:23.334Z,0.40
2022-09-23T14:56:50.396Z,0.43
2022-09-23T14:59:36.277Z,0.40
2022-09-23T15:02:03.351Z,0.30
2022-09-23T15:04:31.546Z,0.30
2022-09-23T15:07:03.818Z,0.10
2022-09-23T15:09:35.712Z,0.20
2022-09-23T15:12:05.420Z,0.20
2022-09-23T15:14:39.802Z,0.20
2022-09-23T15:17:13.768Z,0.20
2022-09-23T15:19:40.579Z,0.30
2022-09-23T15:22:08.071Z,0.20
2022-09-23T15:24:40.143Z,0.50
2022-09-23T15:27:10.651Z,0.60
2022-09-23T15:29:37.159Z,0.80
2022-09-23T15:32:03.658Z,0.68
2022-09-23T15:34:31.509Z,0.50
2022-09-23T15:36:57.943Z,0.50
2022-09-23T15:39:32.055Z,0.98
2022-09-23T15:42:02.595Z,0.57
2022-09-23T15:44:29.971Z,0.40
2022-09-23T15:46:59.225Z,0.60
2022-09-23T15:49:31.891Z,1.05
2022-09-23T15:51:59.874Z,0.82
2022-09-23T15:54:26.852Z,0.60
2022-09-23T15:56:53.300Z,0.40
2022-09-23T15:59:20.496Z,0.60
2022-09-23T16:01:47.577Z,0.60
2022-09-23T16:04:15.878Z,0.52
2022-09-23T16:06:44.529Z,0.40
2022-09-23T16:09:14.457Z,0.90
2022-09-23T16:11:45.827Z,0.88
2022-09-23T16:14:13.763Z,0.75
2022-09-23T16:16:42.193Z,0.68
2022-09-23T16:19:08.805Z,1.58
2022-09-23T16:21:35.392Z,1.85
2022-09-23T16:24:01.920Z,1.85
2022-09-23T16:26:30.419Z,1.40
2022-09-23T16:28:57.557Z,0.77
2022-09-23T16:31:31.333Z,0.60
2022-09-23T16:34:00.249Z,0.68
2022-09-23T16:36:29.016Z,0.90
2022-09-23T16:38:55.731Z,0.95
2022-09-23T16:41:23.505Z,0.60
2022-09-23T16:43:50.660Z,0.63
2022-09-23T16:46:18.389Z,0.90
2022-09-23T16:48:51.373Z,0.55
2022-09-23T16:53:50.607Z,0.80
2022-09-23T16:56:20.066Z,0.98
2022-09-23T16:58:50.363Z,0.80
2022-09-23T17:01:40.219Z,1.02
2022-09-23T17:04:07.651Z,0.90
2022-09-23T17:06:34.503Z,1.48
2022-09-23T17:09:01.085Z,0.90
2022-09-23T17:11:32.185Z,0.70
2022-09-23T17:14:00.994Z,0.90
2022-09-23T17:16:29.093Z,0.85
2022-09-23T17:18:55.987Z,0.70
2022-09-23T17:21:26.513Z,1.00
2022-09-23T17:23:56.553Z,0.70
2022-09-23T17:26:23.746Z,0.90
2022-09-23T17:28:54.435Z,0.88
2022-09-23T17:31:24.157Z,0.80
2022-09-23T17:33:51.215Z,0.82
2022-09-23T17:36:18.368Z,0.85
2022-09-23T17:38:45.809Z,1.33
2022-09-23T17:41:13.245Z,1.17
2022-09-23T17:43:40.003Z,1.05
2022-09-23T17:46:08.075Z,1.70
2022-09-23T17:48:35.655Z,1.48
2022-09-23T17:51:04.300Z,1.20
2022-09-23T17:53:31.513Z,1.77
2022-09-23T17:56:04.276Z,0.95
2022-09-23T17:58:31.917Z,1.58
2022-09-23T18:00:58.952Z,1.08
2022-09-23T18:03:26.483Z,1.38
2022-09-23T18:05:53.108Z,1.70
2022-09-23T18:08:20.031Z,1.45
2022-09-23T18:10:46.870Z,1.77
2022-09-23T18:13:13.367Z,1.50
2022-09-23T18:15:40.071Z,1.35
2022-09-23T18:18:06.798Z,2.00
2022-09-23T18:20:33.313Z,1.80
2022-09-23T18:22:59.885Z,1.90
2022-09-23T18:25:39.066Z,1.45
2022-09-23T18:28:06.437Z,2.08
2022-09-23T18:30:33.684Z,1.98
2022-09-23T18:33:00.229Z,1.42
2022-09-23T18:35:26.872Z,1.85
2022-09-23T18:37:53.337Z,1.50
2022-09-23T18:40:20.018Z,1.75
2022-09-23T18:42:47.729Z,1.25
2022-09-23T18:45:14.278Z,1.10
2022-09-23T18:47:59.619Z,1.40
2022-09-23T18:50:43.180Z,1.55
2022-09-23T18:53:10.315Z,1.73
2022-09-23T18:55:36.817Z,1.65
2022-09-23T18:58:03.392Z,2.28
2022-09-23T19:00:30.184Z,1.90
2022-09-23T19:02:56.772Z,2.08
2022-09-23T19:05:23.330Z,1.63
2022-09-23T19:07:49.850Z,1.75
2022-09-23T19:10:16.519Z,3.22
2022-09-23T19:12:42.993Z,2.50
2022-09-23T19:15:09.600Z,3.65
2022-09-23T19:17:36.151Z,2.40
2022-09-23T19:20:02.669Z,2.33
2022-09-23T19:22:30.574Z,2.20
2022-09-23T19:24:57.113Z,2.97
2022-09-23T19:27:23.993Z,1.88
2022-09-23T19:29:51.170Z,1.63
2022-09-23T19:32:17.667Z,1.70
2022-09-23T19:34:44.409Z,2.03
2022-09-23T19:37:11.098Z,2.17
2022-09-23T19:39:37.681Z,2.47
2022-09-23T19:42:04.195Z,1.90
2022-09-23T19:44:30.763Z,1.40
2022-09-23T19:46:57.935Z,2.45
2022-09-23T19:49:25.107Z,1.98
2022-09-23T19:51:53.017Z,2.00
2022-09-23T19:54:21.020Z,1.80
2022-09-23T19:56:50.854Z,2.17
2022-09-23T19:59:19.020Z,2.33
2022-09-23T20:01:45.980Z,1.80
2022-09-23T20:04:12.572Z,2.13
2022-09-23T20:06:39.509Z,1.45
2022-09-23T20:09:06.209Z,2.00
2022-09-23T20:11:33.528Z,2.00
2022-09-23T20:14:02.307Z,1.63
2022-09-23T20:16:32.190Z,1.20
2022-09-23T20:19:00.376Z,1.73
2022-09-23T20:21:28.285Z,1.45
2022-09-23T20:23:54.958Z,1.58
2022-09-23T20:26:40.251Z,1.88
2022-09-23T20:29:06.853Z,5.28
2022-09-23T20:31:34.539Z,14.82
2022-09-23T20:34:05.624Z,5.10
2022-09-23T20:36:33.018Z,3.50
2022-09-23T20:39:00.423Z,2.78
2022-09-23T20:41:27.832Z,2.50
2022-09-23T20:43:54.987Z,2.72
2022-09-23T20:46:24.507Z,2.53
2022-09-23T20:48:51.465Z,2.28
2022-09-23T20:51:17.932Z,2.40
2022-09-23T20:53:44.619Z,2.10
2022-09-23T20:56:11.360Z,2.35
2022-09-23T20:58:37.852Z,2.58
2022-09-23T21:01:05.754Z,2.55
2022-09-23T21:03:32.847Z,2.28
2022-09-23T21:06:00.068Z,2.58
2022-09-23T21:08:26.628Z,2.50
2022-09-23T21:10:56.576Z,2.53
2022-09-23T21:13:23.412Z,2.58
2022-09-23T21:15:50.376Z,2.75
2022-09-23T21:18:22.301Z,2.28
2022-09-23T21:20:55.616Z,1.63
2022-09-23T21:23:26.475Z,1.63
2022-09-23T21:26:23.391Z,1.60
2022-09-23T21:28:51.055Z,1.70
2022-09-23T21:31:26.092Z,1.80
2022-09-23T21:33:56.463Z,1.55
2022-09-23T21:36:24.757Z,1.40
2022-09-23T21:38:51.906Z,2.55
2022-09-23T21:41:18.756Z,1.42
2022-09-23T21:43:45.712Z,1.67
2022-09-23T21:46:13.230Z,2.78
2022-09-23T21:48:41.319Z,1.48
2022-09-23T21:51:12.894Z,2.15
2022-09-23T21:53:39.842Z,2.30
2022-09-23T21:56:08.196Z,1.95
2022-09-23T21:58:35.388Z,2.58
2022-09-23T22:01:06.429Z,2.05
2022-09-23T22:03:33.307Z,2.05
2022-09-23T22:06:07.448Z,2.42
2022-09-23T22:08:38.111Z,2.20
2022-09-23T22:11:08.585Z,1.88
2022-09-23T22:13:35.104Z,1.92
2022-09-23T22:16:03.308Z,1.90
2022-09-23T22:18:29.915Z,2.92
2022-09-23T22:20:57.991Z,2.15
2022-09-23T22:23:24.760Z,1.85
2022-09-23T22:26:02.770Z,2.05
2022-09-23T22:28:48.411Z,2.13
2022-09-23T22:31:33.695Z,1.73
2022-09-23T22:34:00.323Z,1.85
2022-09-23T22:36:26.856Z,1.70
2022-09-23T22:38:59.063Z,1.90
2022-09-23T22:41:26.424Z,1.83
2022-09-23T22:43:53.949Z,2.30
2022-09-23T22:46:22.110Z,1.83
2022-09-23T22:48:50.488Z,2.08
2022-09-23T22:51:16.971Z,2.80
2022-09-23T22:53:43.484Z,1.92
2022-09-23T22:56:09.959Z,1.98
2022-09-23T22:58:36.514Z,1.60
2022-09-23T23:01:02.992Z,1.73
2022-09-23T23:03:30.550Z,1.15
2022-09-23T23:05:59.992Z,1.35
2022-09-23T23:08:27.798Z,1.73
2022-09-23T23:10:55.099Z,1.73
2022-09-23T23:13:21.995Z,1.60
2022-09-23T23:15:49.322Z,1.90
2022-09-23T23:18:15.828Z,1.70
2022-09-23T23:20:42.803Z,1.85
2022-09-23T23:23:09.279Z,1.67
2022-09-23T23:25:35.754Z,2.25
2022-09-23T23:28:02.554Z,2.50
2022-09-23T23:30:28.994Z,2.28
2022-09-23T23:32:55.483Z,2.13
2022-09-23T23:35:21.968Z,2.97
2022-09-23T23:37:48.489Z,2.42
2022-09-23T23:40:15.116Z,2.80
2022-09-23T23:42:41.647Z,2.70
2022-09-23T23:45:08.358Z,2.72
2022-09-23T23:47:36.042Z,1.80
2022-09-23T23:50:04.534Z,1.55
2022-09-23T23:52:31.014Z,2.15
2022-09-23T23:54:57.538Z,1.83
2022-09-23T23:57:24.083Z,2.00
2022-09-23T23:59:50.552Z,1.90
